Latest Weather Observations for Redcliffe

IDQ60801

Issued at 11:12 pm EST Friday 15 November 2019 (issued every 10 minutes, with the page automatically refreshed every 10 minutes)

About weather observations | Map of weather stations | Latest weather observations for QLD | Other Formats
Station Details ID: 040958 Name: REDCLIFFE Lat: -27.22 Lon: 153.09 Height: 12.6 m
Data from the previous 72 hours. | See also: Recent months at Redcliffe
Date/Time
EST
Temp
°C
App
Temp
°C
Dew
Point
°C
Rel
Hum
%
Delta-T
°C
Wind Press
QNH
hPa
Press
MSL
hPa
Rain since
9am
mm
Dir  Spd
km/h
Gust
km/h
Spd
kts
Gust
kts
15/11:00pm 24.3 21.1 18.5 70 3.7 NNE 33 39 18 21 1013.0 1012.9 0.0
15/10:30pm 24.5 21.3 18.7 70 3.7 NNE 33 39 18 21 1012.9 1012.8 0.0
15/10:00pm 24.6 21.3 18.3 68 4.0 NNE 33 37 18 20 1012.7 1012.6 0.0
15/09:30pm 25.0 22.0 18.7 68 4.0 N 32 35 17 19 1012.6 1012.5 0.0
15/09:00pm 25.1 22.0 18.8 68 4.0 N 33 41 18 22 1012.3 1012.2 0.0
15/08:30pm 25.1 22.3 19.0 69 3.9 NNE 32 39 17 21 1012.0 1011.9 0.0
15/08:00pm 25.6 23.1 20.2 72 3.5 NNE 33 43 18 23 1011.6 1011.5 0.0
15/07:30pm 25.2 21.6 20.2 74 3.3 NNE 39 48 21 26 1011.4 1011.3 0.0
15/07:00pm 25.0 20.6 20.5 76 2.9 NNE 44 52 24 28 1011.1 1011.0 0.0
15/06:30pm 25.1 20.5 20.1 74 3.2 NNE 44 52 24 28 1010.9 1010.8 0.0
15/06:00pm 25.3 20.3 20.1 73 3.4 NNE 46 56 25 30 1010.6 1010.5 0.0
15/05:30pm 25.8 21.4 20.1 71 3.7 NNE 43 50 23 27 1010.3 1010.2 0.0
15/05:00pm 26.2 21.5 19.8 68 4.2 NNE 44 52 24 28 1009.9 1009.8 0.0
15/04:30pm 26.3 22.6 19.9 68 4.2 NNE 39 48 21 26 1010.1 1010.0 0.0
15/04:00pm 26.3 21.5 19.7 67 4.3 NNE 44 52 24 28 1009.8 1009.7 0.0
15/03:30pm 26.6 23.3 20.0 67 4.3 NE 37 44 20 24 1009.7 1009.6 0.0
15/03:00pm 27.1 24.2 20.0 65 4.6 NE 35 41 19 22 1009.8 1009.7 0.0
15/02:30pm 27.5 23.9 20.1 64 4.8 NE 39 44 21 24 1010.1 1010.0 0.0
15/02:00pm 27.6 23.7 20.4 65 4.7 NE 41 48 22 26 1010.4 1010.3 0.0
15/01:30pm 27.5 24.6 20.8 67 4.4 NE 37 46 20 25 1010.8 1010.7 0.0
15/01:00pm 26.5 22.9 20.1 68 4.2 NE 39 44 21 24 1011.2 1011.1 0.0
15/12:30pm 27.2 24.3 20.0 64 4.7 NE 35 41 19 22 1011.6 1011.5 0.0
15/12:00pm 26.8 24.5 20.2 67 4.3 ENE 32 35 17 19 1012.2 1012.1 0.0
15/11:30am 27.6 26.3 20.7 66 4.6 ENE 28 32 15 17 1012.8 1012.7 0.0
15/11:00am 26.5 24.8 18.9 63 4.9 ENE 26 28 14 15 1013.4 1013.3 0.0
15/10:30am 27.0 26.3 19.4 63 4.9 ENE 22 26 12 14 1014.0 1013.9 0.0
15/10:00am 27.0 26.6 18.8 60 5.3 ENE 19 20 10 11 1014.4 1014.3 0.0
15/09:30am 26.7 26.3 18.0 59 5.5 NE 17 19 9 10 1014.7 1014.6 0.0
15/09:00am 25.9 26.4 18.3 63 4.8 NE 13 17 7 9 1014.9 1014.8 0.0
15/08:30am 25.0 25.5 18.4 66 4.2 NE 13 15 7 8 1015.0 1014.9 0.0
15/08:00am 25.3 26.9 19.2 69 3.9 NNW 9 11 5 6 1015.1 1015.0 0.0
15/07:30am 24.0 25.4 18.6 72 3.4 N 9 19 5 10 1015.1 1015.0 0.0
15/07:00am 23.8 25.6 18.7 73 3.2 NNW 7 11 4 6 1015.0 1014.9 0.0
15/06:30am 23.4 26.2 18.9 76 2.9 W 2 9 1 5 1014.7 1014.6 0.0
15/06:00am 22.8 24.8 19.2 80 2.3 WSW 7 11 4 6 1014.4 1014.3 0.0
15/05:30am 21.9 23.5 19.1 84 1.8 W 9 11 5 6 1014.1 1014.0 0.0
15/05:00am 21.7 23.3 19.1 85 1.6 W 9 9 5 5 1013.8 1013.7 0.0
15/04:30am 21.8 23.9 19.0 84 1.8 WNW 6 7 3 4 1013.4 1013.3 0.0
15/04:00am 22.3 24.4 19.3 83 1.9 N 7 9 4 5 1013.2 1013.1 0.0
15/03:30am 23.0 24.5 19.8 82 2.1 NNE 11 13 6 7 1013.1 1013.0 0.0
15/03:00am 23.0 24.9 19.8 82 2.1 ENE 9 13 5 7 1013.3 1013.2 0.0
15/02:30am 22.9 24.4 19.7 82 2.1 NE 11 13 6 7 1013.5 1013.4 0.0
15/02:00am 22.7 24.1 19.5 82 2.0 NE 11 13 6 7 1013.5 1013.4 0.0
15/01:30am 22.7 23.6 19.3 81 2.2 ENE 13 13 7 7 1013.5 1013.4 0.0
15/01:00am 22.8 23.7 19.2 80 2.3 ENE 13 15 7 8 1013.9 1013.8 0.0
15/12:30am 22.9 23.6 18.9 78 2.5 ENE 13 17 7 9 1014.1 1014.0 0.0
15/12:00am 23.0 23.8 19.0 78 2.5 ENE 13 15 7 8 1014.4 1014.3 0.0
 
Date/Time
EST
Temp
°C
App
Temp
°C
Dew
Point
°C
Rel
Hum
%
Delta-T
°C
Wind Press
QNH
hPa
Press
MSL
hPa
Rain since
9am
mm
Dir  Spd
km/h
Gust
km/h
Spd
kts
Gust
kts
14/11:30pm 23.0 23.3 18.7 77 2.7 ENE 15 17 8 9 1014.7 1014.6 0.0
14/11:00pm 23.1 23.3 18.6 76 2.8 ENE 15 17 8 9 1014.8 1014.7 0.0
14/10:30pm 23.2 23.6 18.9 77 2.7 ENE 15 19 8 10 1014.9 1014.8 0.0
14/10:00pm 23.3 23.4 18.4 74 3.1 E 15 19 8 10 1014.9 1014.8 0.0
14/09:30pm 23.2 23.7 18.3 74 3.1 NE 13 19 7 10 1014.8 1014.7 0.0
14/09:00pm 23.1 22.7 18.0 73 3.2 ENE 17 20 9 11 1014.6 1014.5 0.0
14/08:30pm 23.0 22.2 17.9 73 3.2 ENE 19 22 10 12 1014.3 1014.2 0.0
14/08:00pm 23.0 22.1 18.1 74 3.1 ENE 20 24 11 13 1014.0 1013.9 0.0
14/07:30pm 22.9 21.8 17.8 73 3.2 NE 20 26 11 14 1013.8 1013.7 0.0
14/07:00pm 22.9 21.7 17.4 71 3.4 NE 20 24 11 13 1013.7 1013.6 0.0
14/06:30pm 23.0 21.7 17.2 70 3.6 NE 20 26 11 14 1013.3 1013.2 0.0
14/06:00pm 23.3 20.3 16.8 67 4.0 NE 28 32 15 17 1012.8 1012.7 0.0
14/05:30pm 23.5 20.6 17.0 67 4.0 NE 28 32 15 17 1012.2 1012.1 0.0
14/05:00pm 23.9 20.6 16.9 65 4.3 NE 30 32 16 17 1012.0 1011.9 0.0
14/04:30pm 24.6 21.0 16.3 60 5.1 NE 30 32 16 17 1011.9 1011.8 0.0
14/04:00pm 24.7 20.6 15.9 58 5.4 NE 32 33 17 18 1011.9 1011.8 0.0
14/03:30pm 24.6 20.5 15.0 55 5.7 NE 30 33 16 18 1011.9 1011.8 0.0
14/03:00pm 25.5 22.0 15.5 54 6.1 NE 28 32 15 17 1012.0 1011.9 0.0
14/02:30pm 25.4 22.3 15.7 55 5.9 NE 26 30 14 16 1012.2 1012.1 0.0
14/02:00pm 26.1 22.3 11.1 39 8.5 E 22 26 12 14 1012.4 1012.3 0.0
14/01:30pm 26.3 23.2 11.6 40 8.4 E 19 22 10 12 1012.8 1012.7 0.0
14/01:00pm 26.9 23.9 11.8 39 8.7 E 19 22 10 12 1013.2 1013.1 0.0
14/12:30pm 26.4 23.2 10.1 36 9.1 E 17 17 9 9 1013.7 1013.6 0.0
14/12:00pm 26.2 23.6 10.8 38 8.7 E 15 15 8 8 1014.2 1014.1 0.0
14/11:30am 25.5 23.1 10.1 38 8.5 E 13 15 7 8 1014.7 1014.6 0.0
14/11:00am 25.2 22.9 10.3 39 8.3 E 13 15 7 8 1015.3 1015.2 0.0
14/10:30am 24.9 22.6 10.4 40 8.0 E 13 15 7 8 1015.7 1015.6 0.0
14/10:00am 24.3 22.6 12.3 47 6.9 E 13 17 7 9 1016.1 1016.0 0.0
14/09:30am 24.3 23.0 13.8 52 6.2 ESE 13 15 7 8 1016.4 1016.3 0.0
14/09:00am 23.8 22.4 13.4 52 6.0 SE 13 19 7 10 1016.6 1016.5 0.0
14/08:30am 24.0 22.8 14.1 54 5.8 SE 13 17 7 9 1016.5 1016.4 0.0
14/08:00am 24.1 22.7 14.5 55 5.7 SE 15 19 8 10 1016.6 1016.5 0.0
14/07:30am 23.9 22.7 14.0 54 5.8 SE 13 17 7 9 1016.3 1016.2 0.0
14/07:00am 23.1 21.7 14.4 58 5.1 SE 15 17 8 9 1016.1 1016.0 0.0
14/06:30am 22.5 21.1 14.6 61 4.7 SE 15 20 8 11 1015.9 1015.8 0.0
14/06:00am 22.1 20.3 15.5 66 3.9 SE 19 24 10 13 1015.5 1015.4 0.0
14/05:30am 21.6 19.6 15.4 68 3.7 SE 20 26 11 14 1015.2 1015.1 0.0
14/05:00am 21.2 18.9 15.7 71 3.3 SE 22 28 12 15 1014.8 1014.7 0.0
14/04:30am 21.2 18.5 15.5 70 3.4 SE 24 30 13 16 1014.4 1014.3 0.0
14/04:00am 21.6 18.4 15.4 68 3.7 SE 26 32 14 17 1014.2 1014.1 0.0
14/03:30am 21.6 18.4 15.4 68 3.7 ESE 26 30 14 16 1014.0 1013.9 0.0
14/03:00am 21.6 18.9 15.7 69 3.5 ESE 24 28 13 15 1014.1 1014.0 0.0
14/02:30am 21.7 19.1 16.0 70 3.4 ESE 24 30 13 16 1014.1 1014.0 0.0
14/02:00am 21.7 20.0 16.2 71 3.3 ESE 20 26 11 14 1014.2 1014.1 0.0
14/01:30am 21.8 20.0 16.1 70 3.4 SE 20 28 11 15 1013.9 1013.8 0.0
14/01:00am 21.9 19.6 15.7 68 3.7 SE 22 28 12 15 1014.1 1014.0 0.0
14/12:30am 21.9 19.9 15.5 67 3.8 SE 20 26 11 14 1014.1 1014.0 0.0
14/12:00am 22.0 20.0 15.6 67 3.8 SE 20 28 11 15 1014.4 1014.3 0.0
 
Date/Time
EST
Temp
°C
App
Temp
°C
Dew
Point
°C
Rel
Hum
%
Delta-T
°C
Wind Press
QNH
hPa
Press
MSL
hPa
Rain since
9am
mm
Dir  Spd
km/h
Gust
km/h
Spd
kts
Gust
kts
13/11:30pm 22.1 20.2 15.7 67 3.8 SE 20 24 11 13 1014.5 1014.4 0.0
13/11:00pm 22.2 19.9 15.8 67 3.8 SE 22 28 12 15 1014.7 1014.6 0.0
13/10:30pm 22.2 19.6 15.8 67 3.8 SE 24 30 13 16 1014.8 1014.7 0.0
13/10:00pm 22.3 19.3 15.9 67 3.9 SE 26 32 14 17 1014.7 1014.6 0.0
13/09:30pm 22.4 19.5 16.0 67 3.9 SSE 26 32 14 17 1014.6 1014.5 0.0
13/09:00pm 22.6 19.0 16.2 67 3.9 SE 30 35 16 19 1014.5 1014.4 0.0
13/08:30pm 22.6 18.7 16.4 68 3.8 SE 32 37 17 20 1014.1 1014.0 0.0
13/08:00pm 22.6 18.6 16.2 67 3.9 SE 32 37 17 20 1013.8 1013.7 0.0
13/07:30pm 22.6 18.3 15.4 64 4.3 SE 32 35 17 19 1013.4 1013.3 0.0
13/07:00pm 22.7 18.5 15.8 65 4.2 SE 32 37 17 20 1013.0 1012.9 0.0
13/06:30pm 22.7 18.4 15.5 64 4.3 SE 32 39 17 21 1012.6 1012.5 0.0
13/06:00pm 22.9 18.5 15.7 64 4.3 SE 33 39 18 21 1012.3 1012.2 0.0
13/05:30pm 23.0 18.1 15.3 62 4.6 SE 35 39 19 21 1011.7 1011.6 0.0
13/05:00pm 23.5 18.8 15.8 62 4.7 SE 35 41 19 22 1011.1 1011.0 0.0
13/04:30pm 24.0 18.7 16.3 62 4.7 SE 39 46 21 25 1010.9 1010.8 0.0
13/04:00pm 24.6 20.3 16.8 62 4.8 SE 35 43 19 23 1010.5 1010.4 0.0
13/03:30pm 24.9 20.0 17.4 63 4.7 SE 39 48 21 26 1010.2 1010.1 0.0
13/03:00pm 25.0 20.4 18.0 65 4.4 SE 39 46 21 25 1009.9 1009.8 0.0
13/02:30pm 25.1 20.3 17.6 63 4.7 SE 39 44 21 24 1009.6 1009.5 0.0
13/02:00pm 25.5 21.1 18.4 65 4.5 SE 39 48 21 26 1009.6 1009.5 0.0
13/01:30pm 25.7 21.7 18.4 64 4.6 SE 37 46 20 25 1009.5 1009.4 0.0
13/01:00pm 26.2 21.8 17.6 59 5.4 SE 37 43 20 23 1009.8 1009.7 0.0
13/12:30pm 26.7 21.9 18.3 60 5.3 SE 41 50 22 27 1010.0 1009.9 0.0
13/12:00pm 28.0 23.6 18.4 56 6.1 SSE 39 50 21 27 1010.2 1010.1 0.0
13/11:55am 27.3 22.9 16.6 52 6.6 SSE 35 48 19 26 1010.2 1010.1 0.0
13/11:30am 29.5 26.0 14.5 40 9.1 ENE 26 30 14 16 1010.0 1009.9 0.0
13/11:00am 32.6 27.2 8.1 22 13.6 ENE 26 30 14 16 1010.3 1010.2 0.0
13/10:30am 33.3 30.9 10.0 24 13.4 W 13 22 7 12 1010.5 1010.4 0.0
13/10:00am 31.3 29.0 8.9 25 12.5 W 11 20 6 11 1010.7 1010.6 0.0
13/09:30am 30.2 27.5 9.1 27 11.8 WNW 13 28 7 15 1011.0 1010.9 0.0
13/09:00am 30.4 27.3 10.4 29 11.4 N 17 30 9 16 1011.1 1011.0 0.0
13/08:30am 29.5 25.8 10.1 30 11.0 NW 20 30 11 16 1010.6 1010.5 0.0
13/08:00am 27.8 24.5 10.9 35 9.6 NW 19 30 10 16 1010.7 1010.6 0.0
13/07:30am 27.2 24.2 12.4 40 8.6 NNW 20 32 11 17 1010.6 1010.5 0.0
13/07:00am 25.2 22.6 13.1 47 7.0 N 19 24 10 13 1010.8 1010.7 0.0
13/06:30am 23.8 22.6 15.0 57 5.3 NNE 15 19 8 10 1010.7 1010.6 0.0
13/06:00am 23.2 24.2 15.3 61 4.7 NNW 4 9 2 5 1010.5 1010.4 0.0
13/05:30am 22.4 21.6 15.0 63 4.4 N 13 20 7 11 1010.3 1010.2 0.0
13/05:00am 22.4 18.6 14.8 62 4.5 NNE 28 32 15 17 1009.1 1009.0 0.0
13/04:30am 22.6 18.2 14.2 59 4.9 NNE 30 33 16 18 1008.8 1008.7 0.0
13/04:00am 22.5 19.0 14.6 61 4.7 NNE 26 35 14 19 1008.5 1008.4 0.0
13/03:30am 22.9 18.3 14.5 59 5.0 NNE 32 37 17 20 1008.3 1008.2 0.0
13/03:00am 23.2 19.5 13.9 56 5.4 N 26 33 14 18 1008.3 1008.2 0.0
13/02:30am 23.7 21.1 13.8 53 5.8 N 20 28 11 15 1008.6 1008.5 0.0
13/02:00am 23.7 19.9 13.6 53 5.9 N 26 32 14 17 1008.6 1008.5 0.0
13/01:30am 23.8 20.0 13.6 52 5.9 N 26 32 14 17 1008.7 1008.6 0.0
13/01:00am 24.1 20.1 13.0 50 6.4 N 26 32 14 17 1008.8 1008.7 0.0
13/12:30am 24.4 19.9 12.7 48 6.7 N 28 33 15 18 1009.2 1009.1 0.0
13/12:00am 24.4 20.6 12.4 47 6.9 NNE 24 30 13 16 1009.5 1009.4 0.0
 
Date/Time
EST
Temp
°C
App
Temp
°C
Dew
Point
°C
Rel
Hum
%
Delta-T
°C
Wind Press
QNH
hPa
Press
MSL
hPa
Rain since
9am
mm
Dir  Spd
km/h
Gust
km/h
Spd
kts
Gust
kts
12/11:30pm 24.7 21.2 12.3 46 7.1 N 22 28 12 15 1009.8 1009.7 0.0

Other formats

Comma delimited format used in spreadsheet applications
http://www.bom.gov.au/fwo/IDQ60801/IDQ60801.95591.axf

JavaScript Object Notation format (JSON) in row-major order
http://www.bom.gov.au/fwo/IDQ60801/IDQ60801.95591.json

Data quality

Most of these data are generated automatically and are frequently updated. Quality checks on data are not normally performed. It is possible for incorrect values to appear. Refer to information at About Latest Weather Observations and please check the disclaimer before using these data.